sensor_id;sensor_type;location;lat;lon;timestamp;P1;durP1;ratioP1;P2;durP2;ratioP2
38117;SDS011;23928;47.562;7.508;2022-07-22T00:02:23;4.90;;;4.10;;
38117;SDS011;23928;47.562;7.508;2022-07-22T00:04:48;4.83;;;4.27;;
38117;SDS011;23928;47.562;7.508;2022-07-22T00:07:14;4.77;;;3.93;;
38117;SDS011;23928;47.562;7.508;2022-07-22T00:09:40;6.53;;;4.33;;
38117;SDS011;23928;47.562;7.508;2022-07-22T00:12:06;4.53;;;3.80;;
38117;SDS011;23928;47.562;7.508;2022-07-22T00:14:32;4.47;;;3.90;;
38117;SDS011;23928;47.562;7.508;2022-07-22T00:16:58;3.90;;;3.60;;
38117;SDS011;23928;47.562;7.508;2022-07-22T00:19:24;4.93;;;4.00;;
38117;SDS011;23928;47.562;7.508;2022-07-22T00:21:50;6.60;;;4.40;;
38117;SDS011;23928;47.562;7.508;2022-07-22T00:24:16;4.47;;;4.07;;
38117;SDS011;23928;47.562;7.508;2022-07-22T00:26:42;6.13;;;4.27;;
38117;SDS011;23928;47.562;7.508;2022-07-22T00:29:08;6.93;;;4.67;;
38117;SDS011;23928;47.562;7.508;2022-07-22T00:31:34;9.37;;;4.20;;
38117;SDS011;23928;47.562;7.508;2022-07-22T00:34:00;5.30;;;3.90;;
38117;SDS011;23928;47.562;7.508;2022-07-22T00:36:27;4.63;;;4.20;;
38117;SDS011;23928;47.562;7.508;2022-07-22T00:38:53;6.60;;;4.47;;
38117;SDS011;23928;47.562;7.508;2022-07-22T00:41:19;5.97;;;4.33;;
38117;SDS011;23928;47.562;7.508;2022-07-22T00:43:49;5.30;;;4.80;;
38117;SDS011;23928;47.562;7.508;2022-07-22T00:46:15;4.90;;;4.50;;
38117;SDS011;23928;47.562;7.508;2022-07-22T00:48:41;6.47;;;4.03;;
38117;SDS011;23928;47.562;7.508;2022-07-22T00:51:06;6.03;;;4.17;;
38117;SDS011;23928;47.562;7.508;2022-07-22T00:53:32;4.80;;;4.30;;
38117;SDS011;23928;47.562;7.508;2022-07-22T00:55:58;4.80;;;3.67;;
38117;SDS011;23928;47.562;7.508;2022-07-22T00:58:24;7.07;;;4.57;;
38117;SDS011;23928;47.562;7.508;2022-07-22T01:00:49;6.10;;;4.30;;
38117;SDS011;23928;47.562;7.508;2022-07-22T01:03:15;6.43;;;4.10;;
38117;SDS011;23928;47.562;7.508;2022-07-22T01:05:41;5.23;;;4.33;;
38117;SDS011;23928;47.562;7.508;2022-07-22T01:08:07;6.93;;;4.37;;
38117;SDS011;23928;47.562;7.508;2022-07-22T01:10:33;7.83;;;4.93;;
38117;SDS011;23928;47.562;7.508;2022-07-22T01:12:59;7.57;;;4.53;;
38117;SDS011;23928;47.562;7.508;2022-07-22T01:15:25;5.50;;;4.30;;
38117;SDS011;23928;47.562;7.508;2022-07-22T01:17:50;5.40;;;3.97;;
38117;SDS011;23928;47.562;7.508;2022-07-22T01:20:16;4.23;;;3.83;;
38117;SDS011;23928;47.562;7.508;2022-07-22T01:22:42;6.03;;;4.30;;
38117;SDS011;23928;47.562;7.508;2022-07-22T01:25:09;6.43;;;4.27;;
38117;SDS011;23928;47.562;7.508;2022-07-22T01:27:36;6.77;;;4.53;;
38117;SDS011;23928;47.562;7.508;2022-07-22T01:30:03;5.57;;;4.33;;
38117;SDS011;23928;47.562;7.508;2022-07-22T01:32:29;4.57;;;4.17;;
38117;SDS011;23928;47.562;7.508;2022-07-22T01:34:55;5.17;;;4.13;;
38117;SDS011;23928;47.562;7.508;2022-07-22T01:37:21;8.63;;;4.77;;
38117;SDS011;23928;47.562;7.508;2022-07-22T01:39:47;6.07;;;4.83;;
38117;SDS011;23928;47.562;7.508;2022-07-22T01:42:14;5.10;;;4.60;;
38117;SDS011;23928;47.562;7.508;2022-07-22T01:44:39;5.33;;;4.70;;
38117;SDS011;23928;47.562;7.508;2022-07-22T01:47:06;7.20;;;4.30;;
38117;SDS011;23928;47.562;7.508;2022-07-22T01:49:32;6.27;;;4.50;;
38117;SDS011;23928;47.562;7.508;2022-07-22T01:51:59;4.90;;;4.50;;
38117;SDS011;23928;47.562;7.508;2022-07-22T01:54:25;4.70;;;4.23;;
38117;SDS011;23928;47.562;7.508;2022-07-22T01:56:51;7.23;;;4.90;;
38117;SDS011;23928;47.562;7.508;2022-07-22T01:59:16;7.33;;;5.23;;
38117;SDS011;23928;47.562;7.508;2022-07-22T02:01:42;6.90;;;4.47;;
38117;SDS011;23928;47.562;7.508;2022-07-22T02:04:08;4.67;;;3.70;;
38117;SDS011;23928;47.562;7.508;2022-07-22T02:06:33;4.93;;;4.53;;
38117;SDS011;23928;47.562;7.508;2022-07-22T02:08:59;4.23;;;3.83;;
38117;SDS011;23928;47.562;7.508;2022-07-22T02:11:24;8.37;;;5.00;;
38117;SDS011;23928;47.562;7.508;2022-07-22T02:13:50;7.17;;;5.37;;
38117;SDS011;23928;47.562;7.508;2022-07-22T02:16:16;4.33;;;3.93;;
38117;SDS011;23928;47.562;7.508;2022-07-22T02:18:41;6.10;;;4.63;;
38117;SDS011;23928;47.562;7.508;2022-07-22T02:21:07;5.70;;;4.80;;
38117;SDS011;23928;47.562;7.508;2022-07-22T02:23:32;7.43;;;5.03;;
38117;SDS011;23928;47.562;7.508;2022-07-22T02:25:58;7.07;;;4.90;;
38117;SDS011;23928;47.562;7.508;2022-07-22T02:28:24;5.73;;;5.20;;
38117;SDS011;23928;47.562;7.508;2022-07-22T02:30:49;5.03;;;4.43;;
38117;SDS011;23928;47.562;7.508;2022-07-22T02:33:15;5.10;;;4.60;;
38117;SDS011;23928;47.562;7.508;2022-07-22T02:35:41;6.57;;;5.30;;
38117;SDS011;23928;47.562;7.508;2022-07-22T02:38:06;6.90;;;4.80;;
38117;SDS011;23928;47.562;7.508;2022-07-22T02:40:32;5.50;;;5.00;;
38117;SDS011;23928;47.562;7.508;2022-07-22T02:42:58;6.77;;;5.10;;
38117;SDS011;23928;47.562;7.508;2022-07-22T02:45:24;5.50;;;5.00;;
38117;SDS011;23928;47.562;7.508;2022-07-22T02:47:53;8.27;;;5.30;;
38117;SDS011;23928;47.562;7.508;2022-07-22T02:50:21;6.73;;;4.93;;
38117;SDS011;23928;47.562;7.508;2022-07-22T02:52:47;5.80;;;4.20;;
38117;SDS011;23928;47.562;7.508;2022-07-22T02:55:13;4.83;;;4.37;;
38117;SDS011;23928;47.562;7.508;2022-07-22T02:57:39;5.80;;;5.23;;
38117;SDS011;23928;47.562;7.508;2022-07-22T03:00:08;5.47;;;4.70;;
38117;SDS011;23928;47.562;7.508;2022-07-22T03:02:36;4.47;;;4.17;;
38117;SDS011;23928;47.562;7.508;2022-07-22T03:05:03;7.20;;;5.50;;
38117;SDS011;23928;47.562;7.508;2022-07-22T03:07:30;8.23;;;5.50;;
38117;SDS011;23928;47.562;7.508;2022-07-22T03:09:55;6.40;;;5.10;;
38117;SDS011;23928;47.562;7.508;2022-07-22T03:12:21;6.00;;;5.10;;
38117;SDS011;23928;47.562;7.508;2022-07-22T03:14:47;6.90;;;5.23;;
38117;SDS011;23928;47.562;7.508;2022-07-22T03:17:12;6.20;;;5.30;;
38117;SDS011;23928;47.562;7.508;2022-07-22T03:19:38;6.20;;;5.47;;
38117;SDS011;23928;47.562;7.508;2022-07-22T03:22:04;7.70;;;5.80;;
38117;SDS011;23928;47.562;7.508;2022-07-22T03:24:29;5.10;;;4.60;;
38117;SDS011;23928;47.562;7.508;2022-07-22T03:26:55;5.53;;;5.00;;
38117;SDS011;23928;47.562;7.508;2022-07-22T03:29:20;6.40;;;5.80;;
38117;SDS011;23928;47.562;7.508;2022-07-22T03:31:46;5.87;;;5.37;;
38117;SDS011;23928;47.562;7.508;2022-07-22T03:34:12;6.20;;;5.10;;
38117;SDS011;23928;47.562;7.508;2022-07-22T03:36:37;5.17;;;4.67;;
38117;SDS011;23928;47.562;7.508;2022-07-22T03:39:03;6.47;;;5.33;;
38117;SDS011;23928;47.562;7.508;2022-07-22T03:41:29;5.23;;;4.70;;
38117;SDS011;23928;47.562;7.508;2022-07-22T03:43:54;6.27;;;5.00;;
38117;SDS011;23928;47.562;7.508;2022-07-22T03:46:20;5.83;;;5.00;;
38117;SDS011;23928;47.562;7.508;2022-07-22T03:48:46;5.07;;;4.53;;
38117;SDS011;23928;47.562;7.508;2022-07-22T03:51:11;5.93;;;4.80;;
38117;SDS011;23928;47.562;7.508;2022-07-22T03:53:37;7.33;;;5.07;;
38117;SDS011;23928;47.562;7.508;2022-07-22T03:56:03;6.27;;;5.00;;
38117;SDS011;23928;47.562;7.508;2022-07-22T03:58:28;6.47;;;5.10;;
38117;SDS011;23928;47.562;7.508;2022-07-22T04:00:54;7.87;;;5.17;;
38117;SDS011;23928;47.562;7.508;2022-07-22T04:03:20;16.60;;;5.40;;
38117;SDS011;23928;47.562;7.508;2022-07-22T04:05:46;5.80;;;5.30;;
38117;SDS011;23928;47.562;7.508;2022-07-22T04:08:12;5.90;;;5.10;;
38117;SDS011;23928;47.562;7.508;2022-07-22T04:10:38;8.23;;;5.40;;
38117;SDS011;23928;47.562;7.508;2022-07-22T04:13:04;5.40;;;4.90;;
38117;SDS011;23928;47.562;7.508;2022-07-22T04:15:30;5.40;;;4.90;;
38117;SDS011;23928;47.562;7.508;2022-07-22T04:17:55;5.73;;;5.00;;
38117;SDS011;23928;47.562;7.508;2022-07-22T04:20:21;6.30;;;4.43;;
38117;SDS011;23928;47.562;7.508;2022-07-22T04:22:47;6.00;;;4.77;;
38117;SDS011;23928;47.562;7.508;2022-07-22T04:25:12;6.70;;;5.63;;
38117;SDS011;23928;47.562;7.508;2022-07-22T04:27:39;8.57;;;4.90;;
38117;SDS011;23928;47.562;7.508;2022-07-22T04:30:05;4.87;;;4.47;;
38117;SDS011;23928;47.562;7.508;2022-07-22T04:32:31;7.13;;;5.10;;
38117;SDS011;23928;47.562;7.508;2022-07-22T04:34:57;7.47;;;5.77;;
38117;SDS011;23928;47.562;7.508;2022-07-22T04:37:22;7.30;;;5.63;;
38117;SDS011;23928;47.562;7.508;2022-07-22T04:39:48;6.90;;;5.30;;
38117;SDS011;23928;47.562;7.508;2022-07-22T04:42:13;7.13;;;5.57;;
38117;SDS011;23928;47.562;7.508;2022-07-22T04:44:39;8.73;;;5.73;;
38117;SDS011;23928;47.562;7.508;2022-07-22T04:47:05;6.37;;;5.40;;
38117;SDS011;23928;47.562;7.508;2022-07-22T04:49:30;9.57;;;5.57;;
38117;SDS011;23928;47.562;7.508;2022-07-22T04:51:56;6.77;;;5.90;;
38117;SDS011;23928;47.562;7.508;2022-07-22T04:54:22;8.73;;;5.50;;
38117;SDS011;23928;47.562;7.508;2022-07-22T04:56:47;8.07;;;6.13;;
38117;SDS011;23928;47.562;7.508;2022-07-22T04:59:13;8.77;;;5.83;;
38117;SDS011;23928;47.562;7.508;2022-07-22T05:01:38;8.97;;;5.83;;
38117;SDS011;23928;47.562;7.508;2022-07-22T05:04:04;7.77;;;5.50;;
38117;SDS011;23928;47.562;7.508;2022-07-22T05:06:29;7.30;;;5.70;;
38117;SDS011;23928;47.562;7.508;2022-07-22T05:08:55;6.10;;;5.20;;
38117;SDS011;23928;47.562;7.508;2022-07-22T05:11:21;6.17;;;5.57;;
38117;SDS011;23928;47.562;7.508;2022-07-22T05:13:46;7.47;;;5.47;;
38117;SDS011;23928;47.562;7.508;2022-07-22T05:16:13;7.20;;;5.57;;
38117;SDS011;23928;47.562;7.508;2022-07-22T05:18:38;7.57;;;6.30;;
38117;SDS011;23928;47.562;7.508;2022-07-22T05:21:04;7.43;;;5.70;;
38117;SDS011;23928;47.562;7.508;2022-07-22T05:23:30;6.00;;;5.20;;
38117;SDS011;23928;47.562;7.508;2022-07-22T05:25:56;6.33;;;5.73;;
38117;SDS011;23928;47.562;7.508;2022-07-22T05:28:22;7.20;;;5.03;;
38117;SDS011;23928;47.562;7.508;2022-07-22T05:30:48;5.80;;;5.20;;
38117;SDS011;23928;47.562;7.508;2022-07-22T05:33:14;5.60;;;5.10;;
38117;SDS011;23928;47.562;7.508;2022-07-22T05:35:39;7.07;;;5.67;;
38117;SDS011;23928;47.562;7.508;2022-07-22T05:38:05;5.60;;;5.10;;
38117;SDS011;23928;47.562;7.508;2022-07-22T05:40:31;6.83;;;5.33;;
38117;SDS011;23928;47.562;7.508;2022-07-22T05:42:57;8.77;;;6.30;;
38117;SDS011;23928;47.562;7.508;2022-07-22T05:45:23;7.73;;;5.80;;
38117;SDS011;23928;47.562;7.508;2022-07-22T05:47:49;8.37;;;6.00;;
38117;SDS011;23928;47.562;7.508;2022-07-22T05:50:14;8.10;;;7.17;;
38117;SDS011;23928;47.562;7.508;2022-07-22T05:52:40;9.80;;;6.90;;
38117;SDS011;23928;47.562;7.508;2022-07-22T05:55:06;8.03;;;6.90;;
38117;SDS011;23928;47.562;7.508;2022-07-22T05:57:32;10.03;;;6.60;;
38117;SDS011;23928;47.562;7.508;2022-07-22T05:59:58;7.43;;;6.63;;
38117;SDS011;23928;47.562;7.508;2022-07-22T06:02:24;8.53;;;7.13;;
38117;SDS011;23928;47.562;7.508;2022-07-22T06:04:49;8.47;;;6.93;;
38117;SDS011;23928;47.562;7.508;2022-07-22T06:07:15;7.70;;;6.90;;
38117;SDS011;23928;47.562;7.508;2022-07-22T06:09:41;11.97;;;7.67;;
38117;SDS011;23928;47.562;7.508;2022-07-22T06:12:06;11.00;;;7.47;;
38117;SDS011;23928;47.562;7.508;2022-07-22T06:14:32;10.93;;;8.23;;
38117;SDS011;23928;47.562;7.508;2022-07-22T06:16:58;10.33;;;7.47;;
38117;SDS011;23928;47.562;7.508;2022-07-22T06:19:24;9.23;;;7.47;;
38117;SDS011;23928;47.562;7.508;2022-07-22T06:21:50;10.00;;;7.87;;
38117;SDS011;23928;47.562;7.508;2022-07-22T06:24:15;12.57;;;8.20;;
38117;SDS011;23928;47.562;7.508;2022-07-22T06:26:41;9.47;;;8.40;;
38117;SDS011;23928;47.562;7.508;2022-07-22T06:29:07;9.70;;;7.80;;
38117;SDS011;23928;47.562;7.508;2022-07-22T06:31:33;10.07;;;7.77;;
38117;SDS011;23928;47.562;7.508;2022-07-22T06:33:58;8.37;;;7.50;;
38117;SDS011;23928;47.562;7.508;2022-07-22T06:36:24;12.23;;;8.50;;
38117;SDS011;23928;47.562;7.508;2022-07-22T06:38:49;8.77;;;7.70;;
38117;SDS011;23928;47.562;7.508;2022-07-22T06:41:15;10.30;;;7.50;;
38117;SDS011;23928;47.562;7.508;2022-07-22T06:43:44;9.20;;;7.90;;
38117;SDS011;23928;47.562;7.508;2022-07-22T06:46:10;12.33;;;8.40;;
38117;SDS011;23928;47.562;7.508;2022-07-22T06:48:35;12.70;;;8.50;;
38117;SDS011;23928;47.562;7.508;2022-07-22T06:51:01;10.80;;;7.03;;
38117;SDS011;23928;47.562;7.508;2022-07-22T06:53:27;11.43;;;8.67;;
38117;SDS011;23928;47.562;7.508;2022-07-22T06:55:52;10.37;;;8.07;;
38117;SDS011;23928;47.562;7.508;2022-07-22T06:58:18;8.83;;;8.00;;
38117;SDS011;23928;47.562;7.508;2022-07-22T07:00:44;10.03;;;9.03;;
38117;SDS011;23928;47.562;7.508;2022-07-22T07:03:10;13.93;;;8.77;;
38117;SDS011;23928;47.562;7.508;2022-07-22T07:05:35;12.83;;;9.33;;
38117;SDS011;23928;47.562;7.508;2022-07-22T07:08:01;10.50;;;9.27;;
38117;SDS011;23928;47.562;7.508;2022-07-22T07:10:27;10.80;;;8.83;;
38117;SDS011;23928;47.562;7.508;2022-07-22T07:12:56;12.47;;;9.97;;
38117;SDS011;23928;47.562;7.508;2022-07-22T07:15:22;13.20;;;10.17;;
38117;SDS011;23928;47.562;7.508;2022-07-22T07:17:49;9.83;;;8.77;;
38117;SDS011;23928;47.562;7.508;2022-07-22T07:20:15;13.73;;;9.90;;
38117;SDS011;23928;47.562;7.508;2022-07-22T07:22:40;10.13;;;9.03;;
38117;SDS011;23928;47.562;7.508;2022-07-22T07:25:06;16.40;;;9.87;;
38117;SDS011;23928;47.562;7.508;2022-07-22T07:27:33;12.10;;;9.50;;
38117;SDS011;23928;47.562;7.508;2022-07-22T07:29:59;11.37;;;9.13;;
38117;SDS011;23928;47.562;7.508;2022-07-22T07:32:25;10.03;;;8.30;;
38117;SDS011;23928;47.562;7.508;2022-07-22T07:34:51;9.67;;;8.67;;
38117;SDS011;23928;47.562;7.508;2022-07-22T07:37:16;12.97;;;8.83;;
38117;SDS011;23928;47.562;7.508;2022-07-22T07:39:42;8.77;;;7.87;;
38117;SDS011;23928;47.562;7.508;2022-07-22T07:42:08;9.37;;;8.47;;
38117;SDS011;23928;47.562;7.508;2022-07-22T07:44:33;11.83;;;8.43;;
38117;SDS011;23928;47.562;7.508;2022-07-22T07:46:59;9.57;;;8.23;;
38117;SDS011;23928;47.562;7.508;2022-07-22T07:49:25;8.73;;;7.73;;
38117;SDS011;23928;47.562;7.508;2022-07-22T07:51:50;9.37;;;7.57;;
38117;SDS011;23928;47.562;7.508;2022-07-22T07:54:16;9.10;;;7.43;;
38117;SDS011;23928;47.562;7.508;2022-07-22T07:56:42;12.50;;;8.20;;
38117;SDS011;23928;47.562;7.508;2022-07-22T07:59:08;10.13;;;9.00;;
38117;SDS011;23928;47.562;7.508;2022-07-22T08:01:34;9.40;;;8.07;;
38117;SDS011;23928;47.562;7.508;2022-07-22T08:03:59;8.40;;;7.43;;
38117;SDS011;23928;47.562;7.508;2022-07-22T08:06:25;11.23;;;8.00;;
38117;SDS011;23928;47.562;7.508;2022-07-22T08:08:51;8.53;;;7.60;;
38117;SDS011;23928;47.562;7.508;2022-07-22T08:11:16;8.37;;;7.47;;
38117;SDS011;23928;47.562;7.508;2022-07-22T08:13:42;8.10;;;7.30;;
38117;SDS011;23928;47.562;7.508;2022-07-22T08:16:08;8.53;;;6.90;;
38117;SDS011;23928;47.562;7.508;2022-07-22T08:18:34;7.73;;;6.90;;
38117;SDS011;23928;47.562;7.508;2022-07-22T08:21:00;10.07;;;7.37;;
38117;SDS011;23928;47.562;7.508;2022-07-22T08:23:25;7.73;;;6.83;;
38117;SDS011;23928;47.562;7.508;2022-07-22T08:25:51;10.33;;;7.00;;
38117;SDS011;23928;47.562;7.508;2022-07-22T08:28:16;7.53;;;6.83;;
38117;SDS011;23928;47.562;7.508;2022-07-22T08:30:42;7.37;;;6.67;;
38117;SDS011;23928;47.562;7.508;2022-07-22T08:33:08;8.33;;;7.17;;
38117;SDS011;23928;47.562;7.508;2022-07-22T08:35:34;6.87;;;6.17;;
38117;SDS011;23928;47.562;7.508;2022-07-22T08:37:59;10.40;;;7.20;;
38117;SDS011;23928;47.562;7.508;2022-07-22T08:40:25;8.77;;;6.83;;
38117;SDS011;23928;47.562;7.508;2022-07-22T08:42:51;7.77;;;6.67;;
38117;SDS011;23928;47.562;7.508;2022-07-22T08:45:17;8.23;;;6.60;;
38117;SDS011;23928;47.562;7.508;2022-07-22T08:47:47;12.57;;;7.07;;
38117;SDS011;23928;47.562;7.508;2022-07-22T08:50:14;8.87;;;6.77;;
38117;SDS011;23928;47.562;7.508;2022-07-22T08:52:41;10.03;;;6.70;;
38117;SDS011;23928;47.562;7.508;2022-07-22T08:55:07;8.83;;;6.77;;
38117;SDS011;23928;47.562;7.508;2022-07-22T08:57:33;7.10;;;6.40;;
38117;SDS011;23928;47.562;7.508;2022-07-22T09:00:03;10.63;;;6.77;;
38117;SDS011;23928;47.562;7.508;2022-07-22T09:02:36;8.77;;;6.37;;
38117;SDS011;23928;47.562;7.508;2022-07-22T09:05:04;10.17;;;7.53;;
38117;SDS011;23928;47.562;7.508;2022-07-22T09:07:34;6.93;;;6.20;;
38117;SDS011;23928;47.562;7.508;2022-07-22T09:10:08;10.20;;;7.60;;
38117;SDS011;23928;47.562;7.508;2022-07-22T09:15:34;7.87;;;7.13;;
38117;SDS011;23928;47.562;7.508;2022-07-22T09:18:04;7.00;;;6.10;;
38117;SDS011;23928;47.562;7.508;2022-07-22T09:20:30;9.70;;;6.37;;
38117;SDS011;23928;47.562;7.508;2022-07-22T09:22:56;8.87;;;6.93;;
38117;SDS011;23928;47.562;7.508;2022-07-22T09:30:53;8.07;;;6.77;;
38117;SDS011;23928;47.562;7.508;2022-07-22T09:33:18;7.23;;;6.40;;
38117;SDS011;23928;47.562;7.508;2022-07-22T09:35:45;10.83;;;7.17;;
38117;SDS011;23928;47.562;7.508;2022-07-22T09:38:12;7.57;;;6.67;;
38117;SDS011;23928;47.562;7.508;2022-07-22T09:40:42;14.87;;;11.00;;
38117;SDS011;23928;47.562;7.508;2022-07-22T09:43:19;9.00;;;6.80;;
38117;SDS011;23928;47.562;7.508;2022-07-22T09:45:49;7.50;;;6.73;;
38117;SDS011;23928;47.562;7.508;2022-07-22T09:48:20;9.30;;;6.80;;
38117;SDS011;23928;47.562;7.508;2022-07-22T09:50:47;7.60;;;6.60;;
38117;SDS011;23928;47.562;7.508;2022-07-22T09:53:13;7.30;;;6.70;;
38117;SDS011;23928;47.562;7.508;2022-07-22T09:55:40;8.07;;;6.63;;
38117;SDS011;23928;47.562;7.508;2022-07-22T09:58:06;7.77;;;6.70;;
38117;SDS011;23928;47.562;7.508;2022-07-22T10:00:36;11.10;;;6.77;;
38117;SDS011;23928;47.562;7.508;2022-07-22T10:03:04;7.53;;;6.83;;
38117;SDS011;23928;47.562;7.508;2022-07-22T10:05:33;7.97;;;7.17;;
38117;SDS011;23928;47.562;7.508;2022-07-22T10:08:03;8.43;;;7.10;;
38117;SDS011;23928;47.562;7.508;2022-07-22T10:10:31;9.00;;;6.87;;
38117;SDS011;23928;47.562;7.508;2022-07-22T10:12:58;8.30;;;7.00;;
38117;SDS011;23928;47.562;7.508;2022-07-22T10:15:26;7.50;;;6.70;;
38117;SDS011;23928;47.562;7.508;2022-07-22T10:17:53;8.03;;;7.07;;
38117;SDS011;23928;47.562;7.508;2022-07-22T10:20:22;7.73;;;6.93;;
38117;SDS011;23928;47.562;7.508;2022-07-22T10:23:07;7.83;;;6.33;;
38117;SDS011;23928;47.562;7.508;2022-07-22T10:25:54;7.37;;;6.67;;
38117;SDS011;23928;47.562;7.508;2022-07-22T10:30:49;9.57;;;7.33;;
38117;SDS011;23928;47.562;7.508;2022-07-22T10:33:16;9.07;;;6.93;;
38117;SDS011;23928;47.562;7.508;2022-07-22T10:35:59;7.60;;;6.90;;
38117;SDS011;23928;47.562;7.508;2022-07-22T10:38:26;9.20;;;6.50;;
38117;SDS011;23928;47.562;7.508;2022-07-22T10:41:00;9.27;;;6.73;;
38117;SDS011;23928;47.562;7.508;2022-07-22T10:43:29;7.63;;;6.80;;
38117;SDS011;23928;47.562;7.508;2022-07-22T10:46:15;7.23;;;6.53;;
38117;SDS011;23928;47.562;7.508;2022-07-22T10:58:58;7.87;;;6.87;;
38117;SDS011;23928;47.562;7.508;2022-07-22T11:01:44;8.20;;;6.83;;
38117;SDS011;23928;47.562;7.508;2022-07-22T11:04:13;8.70;;;7.33;;
38117;SDS011;23928;47.562;7.508;2022-07-22T11:06:47;7.63;;;6.93;;
38117;SDS011;23928;47.562;7.508;2022-07-22T11:09:15;8.47;;;6.87;;
38117;SDS011;23928;47.562;7.508;2022-07-22T11:11:46;8.83;;;6.80;;
38117;SDS011;23928;47.562;7.508;2022-07-22T11:16:38;7.63;;;6.73;;
38117;SDS011;23928;47.562;7.508;2022-07-22T11:19:04;8.57;;;7.03;;
38117;SDS011;23928;47.562;7.508;2022-07-22T11:21:30;8.47;;;6.60;;
38117;SDS011;23928;47.562;7.508;2022-07-22T11:23:58;8.43;;;7.43;;
38117;SDS011;23928;47.562;7.508;2022-07-22T11:28:58;8.40;;;7.40;;
38117;SDS011;23928;47.562;7.508;2022-07-22T11:31:25;8.03;;;7.10;;
38117;SDS011;23928;47.562;7.508;2022-07-22T11:33:51;7.70;;;7.00;;
38117;SDS011;23928;47.562;7.508;2022-07-22T11:36:16;7.20;;;6.50;;
38117;SDS011;23928;47.562;7.508;2022-07-22T11:41:12;8.63;;;7.20;;
38117;SDS011;23928;47.562;7.508;2022-07-22T11:43:46;10.80;;;7.03;;
38117;SDS011;23928;47.562;7.508;2022-07-22T11:46:14;8.17;;;6.97;;
38117;SDS011;23928;47.562;7.508;2022-07-22T11:48:41;9.47;;;6.77;;
38117;SDS011;23928;47.562;7.508;2022-07-22T11:51:08;7.00;;;6.40;;
38117;SDS011;23928;47.562;7.508;2022-07-22T11:53:39;9.50;;;7.17;;
38117;SDS011;23928;47.562;7.508;2022-07-22T11:56:05;9.47;;;7.77;;
38117;SDS011;23928;47.562;7.508;2022-07-22T11:58:43;7.70;;;6.90;;
38117;SDS011;23928;47.562;7.508;2022-07-22T12:01:11;9.60;;;7.10;;
38117;SDS011;23928;47.562;7.508;2022-07-22T12:03:41;7.97;;;6.73;;
38117;SDS011;23928;47.562;7.508;2022-07-22T12:06:12;8.40;;;6.50;;
38117;SDS011;23928;47.562;7.508;2022-07-22T12:08:41;7.27;;;6.57;;
38117;SDS011;23928;47.562;7.508;2022-07-22T12:11:12;8.00;;;6.87;;
38117;SDS011;23928;47.562;7.508;2022-07-22T12:13:44;6.70;;;6.00;;
38117;SDS011;23928;47.562;7.508;2022-07-22T12:18:44;6.97;;;6.30;;
38117;SDS011;23928;47.562;7.508;2022-07-22T12:21:20;6.70;;;6.10;;
38117;SDS011;23928;47.562;7.508;2022-07-22T12:24:06;7.33;;;6.07;;
38117;SDS011;23928;47.562;7.508;2022-07-22T12:31:52;8.93;;;5.93;;
38117;SDS011;23928;47.562;7.508;2022-07-22T12:34:39;7.10;;;6.40;;
38117;SDS011;23928;47.562;7.508;2022-07-22T12:42:29;6.83;;;5.80;;
38117;SDS011;23928;47.562;7.508;2022-07-22T12:45:13;6.23;;;5.30;;
38117;SDS011;23928;47.562;7.508;2022-07-22T12:47:46;6.27;;;5.40;;
38117;SDS011;23928;47.562;7.508;2022-07-22T12:50:26;8.30;;;5.80;;
38117;SDS011;23928;47.562;7.508;2022-07-22T12:53:15;7.63;;;6.00;;
38117;SDS011;23928;47.562;7.508;2022-07-22T12:55:43;6.07;;;5.20;;
38117;SDS011;23928;47.562;7.508;2022-07-22T12:58:13;6.77;;;5.50;;
38117;SDS011;23928;47.562;7.508;2022-07-22T13:00:41;6.27;;;5.13;;
38117;SDS011;23928;47.562;7.508;2022-07-22T13:03:10;5.77;;;5.27;;
38117;SDS011;23928;47.562;7.508;2022-07-22T13:05:36;7.43;;;6.07;;
38117;SDS011;23928;47.562;7.508;2022-07-22T13:08:02;6.47;;;5.80;;
38117;SDS011;23928;47.562;7.508;2022-07-22T13:10:28;5.87;;;5.27;;
38117;SDS011;23928;47.562;7.508;2022-07-22T13:12:54;5.90;;;5.40;;
38117;SDS011;23928;47.562;7.508;2022-07-22T13:15:21;5.60;;;5.00;;
38117;SDS011;23928;47.562;7.508;2022-07-22T13:17:47;6.50;;;5.53;;
38117;SDS011;23928;47.562;7.508;2022-07-22T13:20:14;5.53;;;5.10;;
38117;SDS011;23928;47.562;7.508;2022-07-22T13:22:44;6.97;;;5.07;;
38117;SDS011;23928;47.562;7.508;2022-07-22T13:25:10;6.07;;;5.15;;
38117;SDS011;23928;47.562;7.508;2022-07-22T13:27:36;5.93;;;5.33;;
38117;SDS011;23928;47.562;7.508;2022-07-22T13:30:02;6.23;;;5.27;;
38117;SDS011;23928;47.562;7.508;2022-07-22T13:32:29;7.53;;;5.47;;
38117;SDS011;23928;47.562;7.508;2022-07-22T13:34:54;7.63;;;5.60;;
38117;SDS011;23928;47.562;7.508;2022-07-22T13:37:21;5.97;;;5.37;;
38117;SDS011;23928;47.562;7.508;2022-07-22T13:39:47;6.18;;;5.13;;
38117;SDS011;23928;47.562;7.508;2022-07-22T13:42:13;6.87;;;5.27;;
38117;SDS011;23928;47.562;7.508;2022-07-22T13:44:43;6.82;;;5.60;;
38117;SDS011;23928;47.562;7.508;2022-07-22T13:47:09;5.47;;;5.03;;
38117;SDS011;23928;47.562;7.508;2022-07-22T13:49:35;6.23;;;5.63;;
38117;SDS011;23928;47.562;7.508;2022-07-22T13:52:00;5.90;;;5.35;;
38117;SDS011;23928;47.562;7.508;2022-07-22T13:54:27;6.10;;;5.33;;
38117;SDS011;23928;47.562;7.508;2022-07-22T13:56:52;5.83;;;5.23;;
38117;SDS011;23928;47.562;7.508;2022-07-22T13:59:18;8.30;;;5.57;;
38117;SDS011;23928;47.562;7.508;2022-07-22T14:01:44;8.60;;;5.07;;
38117;SDS011;23928;47.562;7.508;2022-07-22T14:04:10;6.20;;;5.10;;
38117;SDS011;23928;47.562;7.508;2022-07-22T14:06:35;5.63;;;5.13;;
38117;SDS011;23928;47.562;7.508;2022-07-22T14:09:04;5.97;;;5.33;;
38117;SDS011;23928;47.562;7.508;2022-07-22T14:11:30;5.30;;;4.80;;
38117;SDS011;23928;47.562;7.508;2022-07-22T14:13:55;6.47;;;5.43;;
38117;SDS011;23928;47.562;7.508;2022-07-22T14:16:21;7.17;;;5.70;;
38117;SDS011;23928;47.562;7.508;2022-07-22T14:18:59;9.60;;;5.40;;
38117;SDS011;23928;47.562;7.508;2022-07-22T14:21:33;6.53;;;5.50;;
38117;SDS011;23928;47.562;7.508;2022-07-22T14:23:59;6.10;;;5.47;;
38117;SDS011;23928;47.562;7.508;2022-07-22T14:26:26;6.35;;;5.60;;
38117;SDS011;23928;47.562;7.508;2022-07-22T14:28:52;7.83;;;4.97;;
38117;SDS011;23928;47.562;7.508;2022-07-22T14:31:18;6.60;;;5.40;;
38117;SDS011;23928;47.562;7.508;2022-07-22T14:33:44;7.00;;;6.20;;
38117;SDS011;23928;47.562;7.508;2022-07-22T14:36:10;7.87;;;6.00;;
38117;SDS011;23928;47.562;7.508;2022-07-22T14:38:36;8.27;;;5.67;;
38117;SDS011;23928;47.562;7.508;2022-07-22T14:41:02;6.50;;;5.80;;
38117;SDS011;23928;47.562;7.508;2022-07-22T14:43:28;9.47;;;5.90;;
38117;SDS011;23928;47.562;7.508;2022-07-22T14:45:53;9.27;;;6.32;;
38117;SDS011;23928;47.562;7.508;2022-07-22T14:48:19;6.10;;;5.50;;
38117;SDS011;23928;47.562;7.508;2022-07-22T14:50:44;6.07;;;5.57;;
38117;SDS011;23928;47.562;7.508;2022-07-22T14:53:11;6.00;;;5.40;;
38117;SDS011;23928;47.562;7.508;2022-07-22T14:55:37;6.63;;;6.03;;
38117;SDS011;23928;47.562;7.508;2022-07-22T14:58:03;6.00;;;5.40;;
38117;SDS011;23928;47.562;7.508;2022-07-22T15:00:28;7.25;;;6.53;;
38117;SDS011;23928;47.562;7.508;2022-07-22T15:02:54;6.53;;;5.80;;
38117;SDS011;23928;47.562;7.508;2022-07-22T15:05:20;6.60;;;5.47;;
38117;SDS011;23928;47.562;7.508;2022-07-22T15:07:45;6.07;;;5.40;;
38117;SDS011;23928;47.562;7.508;2022-07-22T15:10:11;6.47;;;5.70;;
38117;SDS011;23928;47.562;7.508;2022-07-22T15:12:36;5.93;;;5.43;;
38117;SDS011;23928;47.562;7.508;2022-07-22T15:15:02;7.20;;;5.30;;
38117;SDS011;23928;47.562;7.508;2022-07-22T15:17:33;6.80;;;5.32;;
38117;SDS011;23928;47.562;7.508;2022-07-22T15:20:00;7.25;;;5.50;;
38117;SDS011;23928;47.562;7.508;2022-07-22T15:22:26;6.40;;;5.82;;
38117;SDS011;23928;47.562;7.508;2022-07-22T15:24:52;6.38;;;5.78;;
38117;SDS011;23928;47.562;7.508;2022-07-22T15:27:19;5.97;;;5.40;;